sensor_id;sensor_type;location;lat;lon;timestamp;temperature;humidity
32728;DHT22;55292;51.844;19.246;2023-06-14T00:02:05;12.60;99.90
32728;DHT22;55292;51.844;19.246;2023-06-14T00:07:39;12.60;99.90
32728;DHT22;55292;51.844;19.246;2023-06-14T00:13:11;12.50;99.90
32728;DHT22;55292;51.844;19.246;2023-06-14T00:18:57;12.40;99.90
32728;DHT22;55292;51.844;19.246;2023-06-14T00:24:07;12.40;99.90
32728;DHT22;55292;51.844;19.246;2023-06-14T00:34:32;12.30;99.90
32728;DHT22;55292;51.844;19.246;2023-06-14T00:39:41;12.30;99.90
32728;DHT22;55292;51.844;19.246;2023-06-14T00:45:16;12.20;99.90
32728;DHT22;55292;51.844;19.246;2023-06-14T00:50:31;12.10;99.90
32728;DHT22;55292;51.844;19.246;2023-06-14T00:55:47;12.00;99.90
32728;DHT22;55292;51.844;19.246;2023-06-14T01:01:00;11.90;99.90
32728;DHT22;55292;51.844;19.246;2023-06-14T01:08:31;11.90;99.90
32728;DHT22;55292;51.844;19.246;2023-06-14T01:18:42;11.70;99.90
32728;DHT22;55292;51.844;19.246;2023-06-14T01:24:21;11.70;99.90
32728;DHT22;55292;51.844;19.246;2023-06-14T01:29:36;11.80;99.90
32728;DHT22;55292;51.844;19.246;2023-06-14T01:35:56;11.70;99.90
32728;DHT22;55292;51.844;19.246;2023-06-14T01:41:41;11.80;99.90
32728;DHT22;55292;51.844;19.246;2023-06-14T01:47:19;11.80;99.90
32728;DHT22;55292;51.844;19.246;2023-06-14T01:53:01;11.70;99.90
32728;DHT22;55292;51.844;19.246;2023-06-14T01:58:33;11.80;99.90
32728;DHT22;55292;51.844;19.246;2023-06-14T02:03:47;11.70;99.90
32728;DHT22;55292;51.844;19.246;2023-06-14T02:09:28;11.80;99.90
32728;DHT22;55292;51.844;19.246;2023-06-14T02:15:00;11.70;99.90
32728;DHT22;55292;51.844;19.246;2023-06-14T02:20:32;11.70;99.90
32728;DHT22;55292;51.844;19.246;2023-06-14T02:25:47;11.70;99.90
32728;DHT22;55292;51.844;19.246;2023-06-14T02:31:02;11.80;99.90
32728;DHT22;55292;51.844;19.246;2023-06-14T02:36:46;11.80;99.90
32728;DHT22;55292;51.844;19.246;2023-06-14T02:42:08;11.80;99.90
32728;DHT22;55292;51.844;19.246;2023-06-14T02:47:52;11.80;99.90
32728;DHT22;55292;51.844;19.246;2023-06-14T02:53:23;11.70;99.90
32728;DHT22;55292;51.844;19.246;2023-06-14T02:58:41;11.70;99.90
32728;DHT22;55292;51.844;19.246;2023-06-14T03:04:10;11.80;99.90
32728;DHT22;55292;51.844;19.246;2023-06-14T03:09:54;11.80;99.90
32728;DHT22;55292;51.844;19.246;2023-06-14T03:16:03;11.90;99.90
32728;DHT22;55292;51.844;19.246;2023-06-14T03:21:51;11.90;99.90
32728;DHT22;55292;51.844;19.246;2023-06-14T03:27:19;8.90;99.90
32728;DHT22;55292;51.844;19.246;2023-06-14T03:32:50;12.40;99.90
32728;DHT22;55292;51.844;19.246;2023-06-14T03:38:21;12.50;99.90
32728;DHT22;55292;51.844;19.246;2023-06-14T03:43:44;12.50;99.90
32728;DHT22;55292;51.844;19.246;2023-06-14T03:49:03;12.40;99.90
32728;DHT22;55292;51.844;19.246;2023-06-14T03:54:32;12.40;99.90
32728;DHT22;55292;51.844;19.246;2023-06-14T03:59:51;12.50;99.90
32728;DHT22;55292;51.844;19.246;2023-06-14T04:05:20;12.60;99.90
32728;DHT22;55292;51.844;19.246;2023-06-14T04:10:42;12.80;99.90
32728;DHT22;55292;51.844;19.246;2023-06-14T04:16:26;12.80;99.90
32728;DHT22;55292;51.844;19.246;2023-06-14T04:21:55;12.70;99.90
32728;DHT22;55292;51.844;19.246;2023-06-14T04:27:26;12.90;99.90
32728;DHT22;55292;51.844;19.246;2023-06-14T04:32:47;12.80;99.90
32728;DHT22;55292;51.844;19.246;2023-06-14T04:38:07;12.90;99.90
32728;DHT22;55292;51.844;19.246;2023-06-14T04:43:46;12.90;99.90
32728;DHT22;55292;51.844;19.246;2023-06-14T04:49:13;13.10;99.90
32728;DHT22;55292;51.844;19.246;2023-06-14T04:54:39;13.20;99.90
32728;DHT22;55292;51.844;19.246;2023-06-14T04:59:56;13.30;99.90
32728;DHT22;55292;51.844;19.246;2023-06-14T05:05:31;13.50;99.90
32728;DHT22;55292;51.844;19.246;2023-06-14T05:10:47;13.40;99.90
32728;DHT22;55292;51.844;19.246;2023-06-14T05:16:09;13.40;99.90
32728;DHT22;55292;51.844;19.246;2023-06-14T05:21:26;13.30;99.90
32728;DHT22;55292;51.844;19.246;2023-06-14T05:26:54;13.50;99.90
32728;DHT22;55292;51.844;19.246;2023-06-14T05:32:13;13.50;99.90
32728;DHT22;55292;51.844;19.246;2023-06-14T05:37:36;13.70;99.90
32728;DHT22;55292;51.844;19.246;2023-06-14T05:42:54;14.00;99.90
32728;DHT22;55292;51.844;19.246;2023-06-14T05:48:14;14.00;99.90
32728;DHT22;55292;51.844;19.246;2023-06-14T05:53:41;15.60;99.90
32728;DHT22;55292;51.844;19.246;2023-06-14T05:58:45;14.10;99.90
32728;DHT22;55292;51.844;19.246;2023-06-14T06:04:24;14.20;99.90
32728;DHT22;55292;51.844;19.246;2023-06-14T06:09:42;14.40;99.90
32728;DHT22;55292;51.844;19.246;2023-06-14T06:15:10;14.90;99.90
32728;DHT22;55292;51.844;19.246;2023-06-14T06:20:47;15.50;99.90
32728;DHT22;55292;51.844;19.246;2023-06-14T06:26:35;15.50;99.90
32728;DHT22;55292;51.844;19.246;2023-06-14T06:32:08;15.30;99.90
32728;DHT22;55292;51.844;19.246;2023-06-14T06:37:17;15.30;99.90
32728;DHT22;55292;51.844;19.246;2023-06-14T06:42:55;15.30;99.90
32728;DHT22;55292;51.844;19.246;2023-06-14T06:48:29;15.60;99.90
32728;DHT22;55292;51.844;19.246;2023-06-14T06:54:22;15.70;99.90
32728;DHT22;55292;51.844;19.246;2023-06-14T07:04:51;16.70;99.90
32728;DHT22;55292;51.844;19.246;2023-06-14T07:10:29;16.70;99.90
32728;DHT22;55292;51.844;19.246;2023-06-14T07:15:59;16.40;99.90
32728;DHT22;55292;51.844;19.246;2023-06-14T07:21:18;16.40;99.90
32728;DHT22;55292;51.844;19.246;2023-06-14T07:27:13;16.40;99.90
32728;DHT22;55292;51.844;19.246;2023-06-14T07:33:05;17.30;99.90
32728;DHT22;55292;51.844;19.246;2023-06-14T07:43:34;17.90;99.90
32728;DHT22;55292;51.844;19.246;2023-06-14T07:48:52;18.10;99.90
32728;DHT22;55292;51.844;19.246;2023-06-14T07:54:15;18.40;99.90
32728;DHT22;55292;51.844;19.246;2023-06-14T07:59:21;19.40;99.90
32728;DHT22;55292;51.844;19.246;2023-06-14T08:04:36;19.10;99.90
32728;DHT22;55292;51.844;19.246;2023-06-14T08:09:42;19.00;99.90
32728;DHT22;55292;51.844;19.246;2023-06-14T08:15:20;18.70;99.90
32728;DHT22;55292;51.844;19.246;2023-06-14T08:20:25;18.70;99.90
32728;DHT22;55292;51.844;19.246;2023-06-14T08:25:37;18.80;99.90
32728;DHT22;55292;51.844;19.246;2023-06-14T08:30:49;19.10;99.90
32728;DHT22;55292;51.844;19.246;2023-06-14T08:42:15;19.10;99.90
32728;DHT22;55292;51.844;19.246;2023-06-14T08:48:02;18.80;99.90
32728;DHT22;55292;51.844;19.246;2023-06-14T08:53:22;18.60;99.90
32728;DHT22;55292;51.844;19.246;2023-06-14T08:59:11;18.60;99.90
32728;DHT22;55292;51.844;19.246;2023-06-14T09:04:37;18.80;99.90
32728;DHT22;55292;51.844;19.246;2023-06-14T09:10:13;19.40;99.90
32728;DHT22;55292;51.844;19.246;2023-06-14T09:15:24;19.30;99.90
32728;DHT22;55292;51.844;19.246;2023-06-14T09:20:36;18.70;99.90
32728;DHT22;55292;51.844;19.246;2023-06-14T09:26:20;18.40;99.90
32728;DHT22;55292;51.844;19.246;2023-06-14T09:31:27;18.40;99.90
32728;DHT22;55292;51.844;19.246;2023-06-14T09:36:51;18.10;99.90
32728;DHT22;55292;51.844;19.246;2023-06-14T09:42:19;18.30;99.90
32728;DHT22;55292;51.844;19.246;2023-06-14T09:47:49;18.40;99.90
32728;DHT22;55292;51.844;19.246;2023-06-14T09:53:17;18.90;99.90
32728;DHT22;55292;51.844;19.246;2023-06-14T09:58:48;16.50;99.90
32728;DHT22;55292;51.844;19.246;2023-06-14T10:04:24;19.50;99.90
32728;DHT22;55292;51.844;19.246;2023-06-14T10:09:54;20.50;99.90
32728;DHT22;55292;51.844;19.246;2023-06-14T10:22:32;20.50;99.90
32728;DHT22;55292;51.844;19.246;2023-06-14T10:28:25;20.40;99.90
32728;DHT22;55292;51.844;19.246;2023-06-14T10:33:56;20.50;99.90
32728;DHT22;55292;51.844;19.246;2023-06-14T10:39:45;19.90;99.90
32728;DHT22;55292;51.844;19.246;2023-06-14T11:05:59;19.80;99.90
32728;DHT22;55292;51.844;19.246;2023-06-14T11:18:53;18.30;99.90
32728;DHT22;55292;51.844;19.246;2023-06-14T11:25:09;17.70;99.90
32728;DHT22;55292;51.844;19.246;2023-06-14T11:39:06;19.60;99.90
32728;DHT22;55292;51.844;19.246;2023-06-14T11:45:06;17.60;99.90
32728;DHT22;55292;51.844;19.246;2023-06-14T11:50:57;19.50;99.90
32728;DHT22;55292;51.844;19.246;2023-06-14T12:03:52;17.80;99.90
32728;DHT22;55292;51.844;19.246;2023-06-14T12:09:35;21.00;99.90
32728;DHT22;55292;51.844;19.246;2023-06-14T12:15:45;18.10;99.90
32728;DHT22;55292;51.844;19.246;2023-06-14T12:21:52;19.30;99.90
32728;DHT22;55292;51.844;19.246;2023-06-14T12:35:06;19.70;99.00
32728;DHT22;55292;51.844;19.246;2023-06-14T12:40:47;20.50;96.00
32728;DHT22;55292;51.844;19.246;2023-06-14T12:46:47;21.40;96.40
32728;DHT22;55292;51.844;19.246;2023-06-14T12:52:31;23.60;91.20
32728;DHT22;55292;51.844;19.246;2023-06-14T12:57:52;25.00;87.40
32728;DHT22;55292;51.844;19.246;2023-06-14T13:03:20;24.30;83.00
32728;DHT22;55292;51.844;19.246;2023-06-14T13:09:06;21.20;89.50
32728;DHT22;55292;51.844;19.246;2023-06-14T13:14:40;20.20;95.20
32728;DHT22;55292;51.844;19.246;2023-06-14T13:26:52;18.10;99.90
32728;DHT22;55292;51.844;19.246;2023-06-14T13:32:25;17.30;99.90
32728;DHT22;55292;51.844;19.246;2023-06-14T13:37:38;16.20;99.90
32728;DHT22;55292;51.844;19.246;2023-06-14T13:43:06;15.30;99.90
32728;DHT22;55292;51.844;19.246;2023-06-14T13:48:25;15.00;99.90
32728;DHT22;55292;51.844;19.246;2023-06-14T13:53:30;15.10;99.90
32728;DHT22;55292;51.844;19.246;2023-06-14T13:58:37;15.20;99.90
32728;DHT22;55292;51.844;19.246;2023-06-14T14:03:41;15.20;99.90
32728;DHT22;55292;51.844;19.246;2023-06-14T14:08:52;15.30;99.90
32728;DHT22;55292;51.844;19.246;2023-06-14T14:14:44;15.30;99.90
32728;DHT22;55292;51.844;19.246;2023-06-14T14:20:25;15.40;99.90
32728;DHT22;55292;51.844;19.246;2023-06-14T14:25:59;15.80;99.90
32728;DHT22;55292;51.844;19.246;2023-06-14T14:31:15;16.10;99.90
32728;DHT22;55292;51.844;19.246;2023-06-14T14:36:32;16.40;99.90
32728;DHT22;55292;51.844;19.246;2023-06-14T14:41:37;16.70;99.90
32728;DHT22;55292;51.844;19.246;2023-06-14T14:46:45;16.80;99.90
32728;DHT22;55292;51.844;19.246;2023-06-14T14:51:50;16.90;99.90
32728;DHT22;55292;51.844;19.246;2023-06-14T14:56:56;17.00;99.90
32728;DHT22;55292;51.844;19.246;2023-06-14T15:01:59;17.00;99.90
32728;DHT22;55292;51.844;19.246;2023-06-14T15:07:06;17.10;99.90
32728;DHT22;55292;51.844;19.246;2023-06-14T15:12:45;17.30;99.90
32728;DHT22;55292;51.844;19.246;2023-06-14T15:17:58;17.80;99.90
32728;DHT22;55292;51.844;19.246;2023-06-14T15:23:01;18.30;99.90
32728;DHT22;55292;51.844;19.246;2023-06-14T15:28:04;18.90;99.90
32728;DHT22;55292;51.844;19.246;2023-06-14T15:33:09;19.40;99.90
32728;DHT22;55292;51.844;19.246;2023-06-14T15:38:15;18.90;99.90
32728;DHT22;55292;51.844;19.246;2023-06-14T15:43:19;18.20;99.90
32728;DHT22;55292;51.844;19.246;2023-06-14T15:48:28;17.80;99.90
32728;DHT22;55292;51.844;19.246;2023-06-14T15:53:42;17.50;99.90
32728;DHT22;55292;51.844;19.246;2023-06-14T15:58:48;17.80;99.90
32728;DHT22;55292;51.844;19.246;2023-06-14T16:03:58;17.50;99.90
32728;DHT22;55292;51.844;19.246;2023-06-14T16:09:03;17.40;99.90
32728;DHT22;55292;51.844;19.246;2023-06-14T16:14:07;17.20;99.90
32728;DHT22;55292;51.844;19.246;2023-06-14T16:19:26;17.00;99.90
32728;DHT22;55292;51.844;19.246;2023-06-14T16:24:55;16.50;99.90
32728;DHT22;55292;51.844;19.246;2023-06-14T16:30:42;16.20;99.90
32728;DHT22;55292;51.844;19.246;2023-06-14T16:36:14;16.00;99.90
32728;DHT22;55292;51.844;19.246;2023-06-14T16:42:00;16.00;99.90
32728;DHT22;55292;51.844;19.246;2023-06-14T16:47:09;16.10;99.90
32728;DHT22;55292;51.844;19.246;2023-06-14T16:52:39;16.20;99.90
32728;DHT22;55292;51.844;19.246;2023-06-14T16:57:54;16.10;99.90
32728;DHT22;55292;51.844;19.246;2023-06-14T17:03:32;16.20;99.90
32728;DHT22;55292;51.844;19.246;2023-06-14T17:09:18;15.90;99.90
32728;DHT22;55292;51.844;19.246;2023-06-14T17:14:41;15.60;99.90
32728;DHT22;55292;51.844;19.246;2023-06-14T17:19:59;15.40;99.90
32728;DHT22;55292;51.844;19.246;2023-06-14T17:25:11;15.10;99.90
32728;DHT22;55292;51.844;19.246;2023-06-14T17:30:40;14.80;99.90
32728;DHT22;55292;51.844;19.246;2023-06-14T17:35:46;14.90;99.90
32728;DHT22;55292;51.844;19.246;2023-06-14T17:41:12;14.80;99.90
32728;DHT22;55292;51.844;19.246;2023-06-14T17:46:16;14.80;99.90
32728;DHT22;55292;51.844;19.246;2023-06-14T17:51:20;14.70;99.90
32728;DHT22;55292;51.844;19.246;2023-06-14T17:56:29;14.50;99.90
32728;DHT22;55292;51.844;19.246;2023-06-14T18:01:32;14.60;99.90
32728;DHT22;55292;51.844;19.246;2023-06-14T18:06:39;14.50;99.90
32728;DHT22;55292;51.844;19.246;2023-06-14T18:11:42;14.60;99.90
32728;DHT22;55292;51.844;19.246;2023-06-14T18:16:51;14.50;99.90
32728;DHT22;55292;51.844;19.246;2023-06-14T18:22:09;14.50;99.90
32728;DHT22;55292;51.844;19.246;2023-06-14T18:27:12;14.40;99.90
32728;DHT22;55292;51.844;19.246;2023-06-14T18:32:19;14.20;99.90
32728;DHT22;55292;51.844;19.246;2023-06-14T18:37:22;14.10;99.90
32728;DHT22;55292;51.844;19.246;2023-06-14T18:42:26;14.00;99.90
32728;DHT22;55292;51.844;19.246;2023-06-14T18:47:29;13.90;99.90
32728;DHT22;55292;51.844;19.246;2023-06-14T18:52:32;13.90;99.90
32728;DHT22;55292;51.844;19.246;2023-06-14T18:57:35;13.80;99.90
32728;DHT22;55292;51.844;19.246;2023-06-14T19:02:41;13.80;99.90
32728;DHT22;55292;51.844;19.246;2023-06-14T19:08:32;13.70;99.90
32728;DHT22;55292;51.844;19.246;2023-06-14T19:14:13;13.70;99.90
32728;DHT22;55292;51.844;19.246;2023-06-14T19:19:41;13.70;99.90
32728;DHT22;55292;51.844;19.246;2023-06-14T19:25:06;13.60;99.90
32728;DHT22;55292;51.844;19.246;2023-06-14T19:30:29;12.20;99.90
32728;DHT22;55292;51.844;19.246;2023-06-14T19:35:48;13.50;99.90
32728;DHT22;55292;51.844;19.246;2023-06-14T19:41:17;13.50;99.90
32728;DHT22;55292;51.844;19.246;2023-06-14T19:46:37;13.40;99.90
32728;DHT22;55292;51.844;19.246;2023-06-14T19:51:40;13.40;99.90
32728;DHT22;55292;51.844;19.246;2023-06-14T19:56:43;13.30;99.90
32728;DHT22;55292;51.844;19.246;2023-06-14T20:01:48;13.30;99.90
32728;DHT22;55292;51.844;19.246;2023-06-14T20:06:51;13.20;99.90
32728;DHT22;55292;51.844;19.246;2023-06-14T20:11:58;13.20;99.90
32728;DHT22;55292;51.844;19.246;2023-06-14T20:17:00;13.10;99.90
32728;DHT22;55292;51.844;19.246;2023-06-14T20:22:04;13.10;99.90
32728;DHT22;55292;51.844;19.246;2023-06-14T20:27:07;13.00;99.90
32728;DHT22;55292;51.844;19.246;2023-06-14T20:32:10;13.00;99.90
32728;DHT22;55292;51.844;19.246;2023-06-14T20:37:13;13.00;99.90
32728;DHT22;55292;51.844;19.246;2023-06-14T20:42:16;12.90;99.90
32728;DHT22;55292;51.844;19.246;2023-06-14T20:47:31;12.90;99.90
32728;DHT22;55292;51.844;19.246;2023-06-14T20:52:34;12.90;99.90
32728;DHT22;55292;51.844;19.246;2023-06-14T20:57:37;12.80;99.90
32728;DHT22;55292;51.844;19.246;2023-06-14T21:02:40;12.80;99.90
32728;DHT22;55292;51.844;19.246;2023-06-14T21:07:43;12.70;99.90
32728;DHT22;55292;51.844;19.246;2023-06-14T21:12:46;12.70;99.90
32728;DHT22;55292;51.844;19.246;2023-06-14T21:17:48;12.70;99.90
32728;DHT22;55292;51.844;19.246;2023-06-14T21:22:51;12.70;99.90
32728;DHT22;55292;51.844;19.246;2023-06-14T21:27:54;12.80;99.90
32728;DHT22;55292;51.844;19.246;2023-06-14T21:32:56;12.60;99.90
32728;DHT22;55292;51.844;19.246;2023-06-14T21:37:59;12.60;99.90
32728;DHT22;55292;51.844;19.246;2023-06-14T21:43:02;12.50;99.90
32728;DHT22;55292;51.844;19.246;2023-06-14T21:48:05;12.40;99.90
32728;DHT22;55292;51.844;19.246;2023-06-14T21:53:08;12.40;99.90
32728;DHT22;55292;51.844;19.246;2023-06-14T21:58:11;12.40;99.90
32728;DHT22;55292;51.844;19.246;2023-06-14T22:03:13;12.40;99.90
32728;DHT22;55292;51.844;19.246;2023-06-14T22:08:16;12.40;99.90
32728;DHT22;55292;51.844;19.246;2023-06-14T22:13:19;12.50;99.90
32728;DHT22;55292;51.844;19.246;2023-06-14T22:18:22;12.50;99.90
32728;DHT22;55292;51.844;19.246;2023-06-14T22:23:26;12.50;99.90
32728;DHT22;55292;51.844;19.246;2023-06-14T22:28:38;12.50;99.90
32728;DHT22;55292;51.844;19.246;2023-06-14T22:33:46;12.40;99.90
32728;DHT22;55292;51.844;19.246;2023-06-14T22:38:48;12.40;99.90
32728;DHT22;55292;51.844;19.246;2023-06-14T22:43:52;12.40;99.90
32728;DHT22;55292;51.844;19.246;2023-06-14T22:48:54;12.40;99.90
32728;DHT22;55292;51.844;19.246;2023-06-14T22:53:58;12.50;99.90
32728;DHT22;55292;51.844;19.246;2023-06-14T22:59:01;12.40;99.90
32728;DHT22;55292;51.844;19.246;2023-06-14T23:04:04;12.40;99.90
32728;DHT22;55292;51.844;19.246;2023-06-14T23:09:07;12.30;99.90
32728;DHT22;55292;51.844;19.246;2023-06-14T23:14:11;12.20;99.90
32728;DHT22;55292;51.844;19.246;2023-06-14T23:19:14;12.10;99.90
32728;DHT22;55292;51.844;19.246;2023-06-14T23:24:16;12.10;99.90
32728;DHT22;55292;51.844;19.246;2023-06-14T23:29:22;11.90;99.90
32728;DHT22;55292;51.844;19.246;2023-06-14T23:34:25;11.90;99.90
32728;DHT22;55292;51.844;19.246;2023-06-14T23:39:31;11.80;99.90
32728;DHT22;55292;51.844;19.246;2023-06-14T23:44:35;11.70;99.90
32728;DHT22;55292;51.844;19.246;2023-06-14T23:49:38;10.40;99.90
32728;DHT22;55292;51.844;19.246;2023-06-14T23:54:41;11.70;99.90
32728;DHT22;55292;51.844;19.246;2023-06-14T23:59:48;11.60;99.90
